Terminal Aerodrome Forecast
Issued by NWS Twin Cities, MN

Home | Current Version | Previous Version | Text Only | Print | Product List | Glossary On
Versions: 1 2 3 4 5 6 7 8 9 10 11 12 13 14 15 16 17 18 19 20 21 22 23 24 25
000
FTUS43 KMPX 280904 AAA
TAFMSP
TAF AMD
KMSP 280904Z 2809/2912 00000KT P6SM BKN250
     FM281300 34005KT P6SM SCT110 BKN200
     FM281900 33009KT P6SM VCSH BKN060
     FM282100 35008KT P6SM BKN060 BKN090
     FM290200 35005KT P6SM FEW090=

USA.gov is the U.S. government's official web portal to all federal, state and local government web resources and services.